sensor_id;sensor_type;location;lat;lon;timestamp;temperature;humidity
57390;DHT22;43217;52.694;6.214;2024-01-25T00:02:05;7.10;99.90
57390;DHT22;43217;52.694;6.214;2024-01-25T00:04:31;7.10;99.90
57390;DHT22;43217;52.694;6.214;2024-01-25T00:06:57;7.10;99.90
57390;DHT22;43217;52.694;6.214;2024-01-25T00:09:22;7.00;99.90
57390;DHT22;43217;52.694;6.214;2024-01-25T00:11:48;7.00;99.90
57390;DHT22;43217;52.694;6.214;2024-01-25T00:14:13;7.00;99.90
57390;DHT22;43217;52.694;6.214;2024-01-25T00:16:42;6.90;99.90
57390;DHT22;43217;52.694;6.214;2024-01-25T00:19:08;6.90;99.90
57390;DHT22;43217;52.694;6.214;2024-01-25T00:21:33;6.90;99.90
57390;DHT22;43217;52.694;6.214;2024-01-25T00:23:59;6.80;99.90
57390;DHT22;43217;52.694;6.214;2024-01-25T00:26:25;6.80;99.90
57390;DHT22;43217;52.694;6.214;2024-01-25T00:28:50;6.80;99.90
57390;DHT22;43217;52.694;6.214;2024-01-25T00:31:16;6.80;99.90
57390;DHT22;43217;52.694;6.214;2024-01-25T00:33:41;6.70;99.90
57390;DHT22;43217;52.694;6.214;2024-01-25T00:36:07;6.70;99.90
57390;DHT22;43217;52.694;6.214;2024-01-25T00:38:33;6.70;99.90
57390;DHT22;43217;52.694;6.214;2024-01-25T00:41:00;6.60;99.90
57390;DHT22;43217;52.694;6.214;2024-01-25T00:43:25;6.60;99.90
57390;DHT22;43217;52.694;6.214;2024-01-25T00:45:52;6.60;99.90
57390;DHT22;43217;52.694;6.214;2024-01-25T00:48:18;6.60;99.90
57390;DHT22;43217;52.694;6.214;2024-01-25T00:50:44;6.60;99.90
57390;DHT22;43217;52.694;6.214;2024-01-25T00:53:09;6.50;99.90
57390;DHT22;43217;52.694;6.214;2024-01-25T00:55:35;6.50;99.90
57390;DHT22;43217;52.694;6.214;2024-01-25T00:58:01;6.50;99.90
57390;DHT22;43217;52.694;6.214;2024-01-25T01:00:27;6.40;99.90
57390;DHT22;43217;52.694;6.214;2024-01-25T01:02:53;6.40;99.90
57390;DHT22;43217;52.694;6.214;2024-01-25T01:05:19;6.40;99.90
57390;DHT22;43217;52.694;6.214;2024-01-25T01:07:45;6.40;99.90
57390;DHT22;43217;52.694;6.214;2024-01-25T01:10:11;6.40;99.90
57390;DHT22;43217;52.694;6.214;2024-01-25T01:12:37;6.40;99.90
57390;DHT22;43217;52.694;6.214;2024-01-25T01:15:03;6.30;99.90
57390;DHT22;43217;52.694;6.214;2024-01-25T01:17:29;6.40;99.90
57390;DHT22;43217;52.694;6.214;2024-01-25T01:19:55;6.40;99.90
57390;DHT22;43217;52.694;6.214;2024-01-25T01:22:20;6.40;99.90
57390;DHT22;43217;52.694;6.214;2024-01-25T01:24:46;6.40;99.90
57390;DHT22;43217;52.694;6.214;2024-01-25T01:27:11;6.50;99.90
57390;DHT22;43217;52.694;6.214;2024-01-25T01:29:37;6.50;99.90
57390;DHT22;43217;52.694;6.214;2024-01-25T01:32:03;6.40;99.90
57390;DHT22;43217;52.694;6.214;2024-01-25T01:34:29;6.40;99.90
57390;DHT22;43217;52.694;6.214;2024-01-25T01:36:54;6.40;99.90
57390;DHT22;43217;52.694;6.214;2024-01-25T01:39:20;6.40;99.90
57390;DHT22;43217;52.694;6.214;2024-01-25T01:41:49;6.30;99.90
57390;DHT22;43217;52.694;6.214;2024-01-25T01:44:15;6.30;99.90
57390;DHT22;43217;52.694;6.214;2024-01-25T01:46:41;6.30;99.90
57390;DHT22;43217;52.694;6.214;2024-01-25T01:49:11;6.30;99.90
57390;DHT22;43217;52.694;6.214;2024-01-25T01:51:38;6.30;99.90
57390;DHT22;43217;52.694;6.214;2024-01-25T01:54:07;6.20;99.90
57390;DHT22;43217;52.694;6.214;2024-01-25T01:56:33;6.20;99.90
57390;DHT22;43217;52.694;6.214;2024-01-25T01:59:02;6.20;99.90
57390;DHT22;43217;52.694;6.214;2024-01-25T02:01:29;6.20;99.90
57390;DHT22;43217;52.694;6.214;2024-01-25T02:03:55;6.20;99.90
57390;DHT22;43217;52.694;6.214;2024-01-25T02:06:23;6.20;99.90
57390;DHT22;43217;52.694;6.214;2024-01-25T02:08:49;6.20;99.90
57390;DHT22;43217;52.694;6.214;2024-01-25T02:11:17;6.20;99.90
57390;DHT22;43217;52.694;6.214;2024-01-25T02:13:43;6.20;99.90
57390;DHT22;43217;52.694;6.214;2024-01-25T02:16:08;6.20;99.90
57390;DHT22;43217;52.694;6.214;2024-01-25T02:18:34;6.10;99.90
57390;DHT22;43217;52.694;6.214;2024-01-25T02:21:00;6.10;99.90
57390;DHT22;43217;52.694;6.214;2024-01-25T02:23:26;6.10;99.90
57390;DHT22;43217;52.694;6.214;2024-01-25T02:25:52;6.10;99.90
57390;DHT22;43217;52.694;6.214;2024-01-25T02:28:18;6.10;99.90
57390;DHT22;43217;52.694;6.214;2024-01-25T02:30:43;6.10;99.90
57390;DHT22;43217;52.694;6.214;2024-01-25T02:33:09;6.10;99.90
57390;DHT22;43217;52.694;6.214;2024-01-25T02:35:34;6.00;99.90
57390;DHT22;43217;52.694;6.214;2024-01-25T02:38:00;6.10;99.90
57390;DHT22;43217;52.694;6.214;2024-01-25T02:40:26;6.00;99.90
57390;DHT22;43217;52.694;6.214;2024-01-25T02:42:51;6.00;99.90
57390;DHT22;43217;52.694;6.214;2024-01-25T02:45:17;6.00;99.90
57390;DHT22;43217;52.694;6.214;2024-01-25T02:47:43;6.00;99.90
57390;DHT22;43217;52.694;6.214;2024-01-25T02:50:09;5.90;99.90
57390;DHT22;43217;52.694;6.214;2024-01-25T02:52:35;5.90;99.90
57390;DHT22;43217;52.694;6.214;2024-01-25T02:55:00;5.90;99.90
57390;DHT22;43217;52.694;6.214;2024-01-25T02:57:26;5.90;99.90
57390;DHT22;43217;52.694;6.214;2024-01-25T02:59:51;5.90;99.90
57390;DHT22;43217;52.694;6.214;2024-01-25T03:02:17;5.80;99.90
57390;DHT22;43217;52.694;6.214;2024-01-25T03:04:45;5.80;99.90
57390;DHT22;43217;52.694;6.214;2024-01-25T03:07:10;5.90;99.90
57390;DHT22;43217;52.694;6.214;2024-01-25T03:09:36;5.90;99.90
57390;DHT22;43217;52.694;6.214;2024-01-25T03:12:01;5.90;99.90
57390;DHT22;43217;52.694;6.214;2024-01-25T03:14:27;5.80;99.90
57390;DHT22;43217;52.694;6.214;2024-01-25T03:16:53;5.80;99.90
57390;DHT22;43217;52.694;6.214;2024-01-25T03:19:19;5.80;99.90
57390;DHT22;43217;52.694;6.214;2024-01-25T03:21:44;5.80;99.90
57390;DHT22;43217;52.694;6.214;2024-01-25T03:24:10;5.70;99.90
57390;DHT22;43217;52.694;6.214;2024-01-25T03:26:35;5.70;99.90
57390;DHT22;43217;52.694;6.214;2024-01-25T03:29:01;5.70;99.90
57390;DHT22;43217;52.694;6.214;2024-01-25T03:31:26;5.70;99.90
57390;DHT22;43217;52.694;6.214;2024-01-25T03:33:52;5.70;99.90
57390;DHT22;43217;52.694;6.214;2024-01-25T03:36:18;5.70;99.90
57390;DHT22;43217;52.694;6.214;2024-01-25T03:38:43;5.70;99.90
57390;DHT22;43217;52.694;6.214;2024-01-25T03:41:09;5.70;99.90
57390;DHT22;43217;52.694;6.214;2024-01-25T03:43:35;5.60;99.90
57390;DHT22;43217;52.694;6.214;2024-01-25T03:46:01;5.60;99.90
57390;DHT22;43217;52.694;6.214;2024-01-25T03:48:26;5.60;99.90
57390;DHT22;43217;52.694;6.214;2024-01-25T03:50:52;5.60;99.90
57390;DHT22;43217;52.694;6.214;2024-01-25T03:53:22;5.60;99.90
57390;DHT22;43217;52.694;6.214;2024-01-25T03:55:47;5.50;99.90
57390;DHT22;43217;52.694;6.214;2024-01-25T03:58:15;5.50;99.90
57390;DHT22;43217;52.694;6.214;2024-01-25T04:00:40;5.50;99.90
57390;DHT22;43217;52.694;6.214;2024-01-25T04:03:06;5.50;99.90
57390;DHT22;43217;52.694;6.214;2024-01-25T04:05:32;5.50;99.90
57390;DHT22;43217;52.694;6.214;2024-01-25T04:07:57;5.50;99.90
57390;DHT22;43217;52.694;6.214;2024-01-25T04:10:23;5.50;99.90
57390;DHT22;43217;52.694;6.214;2024-01-25T04:12:49;5.50;99.90
57390;DHT22;43217;52.694;6.214;2024-01-25T04:15:14;5.50;99.90
57390;DHT22;43217;52.694;6.214;2024-01-25T04:17:40;5.40;99.90
57390;DHT22;43217;52.694;6.214;2024-01-25T04:20:06;5.40;99.90
57390;DHT22;43217;52.694;6.214;2024-01-25T04:22:32;5.40;99.90
57390;DHT22;43217;52.694;6.214;2024-01-25T04:24:57;5.40;99.90
57390;DHT22;43217;52.694;6.214;2024-01-25T04:27:23;5.40;99.90
57390;DHT22;43217;52.694;6.214;2024-01-25T04:29:48;5.40;99.90
57390;DHT22;43217;52.694;6.214;2024-01-25T04:32:14;5.40;99.90
57390;DHT22;43217;52.694;6.214;2024-01-25T04:34:40;5.30;99.90
57390;DHT22;43217;52.694;6.214;2024-01-25T04:37:05;5.30;99.90
57390;DHT22;43217;52.694;6.214;2024-01-25T04:39:31;5.30;99.90
57390;DHT22;43217;52.694;6.214;2024-01-25T04:41:56;5.30;99.90
57390;DHT22;43217;52.694;6.214;2024-01-25T04:44:22;5.20;99.90
57390;DHT22;43217;52.694;6.214;2024-01-25T04:46:48;5.20;99.90
57390;DHT22;43217;52.694;6.214;2024-01-25T04:49:13;5.20;99.90
57390;DHT22;43217;52.694;6.214;2024-01-25T04:51:39;5.20;99.90
57390;DHT22;43217;52.694;6.214;2024-01-25T04:54:04;5.20;99.90
57390;DHT22;43217;52.694;6.214;2024-01-25T04:56:31;5.20;99.90
57390;DHT22;43217;52.694;6.214;2024-01-25T04:58:57;5.20;99.90
57390;DHT22;43217;52.694;6.214;2024-01-25T05:01:23;5.10;99.90
57390;DHT22;43217;52.694;6.214;2024-01-25T05:03:49;5.10;99.90
57390;DHT22;43217;52.694;6.214;2024-01-25T05:06:14;5.20;99.90
57390;DHT22;43217;52.694;6.214;2024-01-25T05:08:42;5.10;99.90
57390;DHT22;43217;52.694;6.214;2024-01-25T05:11:08;5.10;99.90
57390;DHT22;43217;52.694;6.214;2024-01-25T05:13:34;5.10;99.90
57390;DHT22;43217;52.694;6.214;2024-01-25T05:16:00;5.10;99.90
57390;DHT22;43217;52.694;6.214;2024-01-25T05:18:26;5.10;99.90
57390;DHT22;43217;52.694;6.214;2024-01-25T05:20:52;5.00;99.90
57390;DHT22;43217;52.694;6.214;2024-01-25T05:23:17;5.00;99.90
57390;DHT22;43217;52.694;6.214;2024-01-25T05:25:43;5.00;99.90
57390;DHT22;43217;52.694;6.214;2024-01-25T05:28:08;5.00;99.90
57390;DHT22;43217;52.694;6.214;2024-01-25T05:30:34;4.90;99.90
57390;DHT22;43217;52.694;6.214;2024-01-25T05:32:59;4.80;99.90
57390;DHT22;43217;52.694;6.214;2024-01-25T05:35:26;4.60;99.90
57390;DHT22;43217;52.694;6.214;2024-01-25T05:37:51;4.50;99.90
57390;DHT22;43217;52.694;6.214;2024-01-25T05:40:17;4.40;99.90
57390;DHT22;43217;52.694;6.214;2024-01-25T05:42:43;4.30;99.90
57390;DHT22;43217;52.694;6.214;2024-01-25T05:45:09;4.20;99.90
57390;DHT22;43217;52.694;6.214;2024-01-25T05:47:34;4.20;99.90
57390;DHT22;43217;52.694;6.214;2024-01-25T05:50:00;4.10;99.90
57390;DHT22;43217;52.694;6.214;2024-01-25T05:52:26;4.10;99.90
57390;DHT22;43217;52.694;6.214;2024-01-25T05:54:51;4.00;99.90
57390;DHT22;43217;52.694;6.214;2024-01-25T05:57:17;4.00;99.90
57390;DHT22;43217;52.694;6.214;2024-01-25T05:59:44;4.00;99.90
57390;DHT22;43217;52.694;6.214;2024-01-25T06:02:10;4.00;99.90
57390;DHT22;43217;52.694;6.214;2024-01-25T06:04:35;4.00;99.90
57390;DHT22;43217;52.694;6.214;2024-01-25T06:07:01;4.10;99.90
57390;DHT22;43217;52.694;6.214;2024-01-25T06:09:26;4.10;99.90
57390;DHT22;43217;52.694;6.214;2024-01-25T06:11:53;4.10;99.90
57390;DHT22;43217;52.694;6.214;2024-01-25T06:14:18;4.10;99.90
57390;DHT22;43217;52.694;6.214;2024-01-25T06:16:44;4.10;99.90
57390;DHT22;43217;52.694;6.214;2024-01-25T06:19:10;4.10;99.90
57390;DHT22;43217;52.694;6.214;2024-01-25T06:21:36;4.10;99.90
57390;DHT22;43217;52.694;6.214;2024-01-25T06:24:03;4.10;99.90
57390;DHT22;43217;52.694;6.214;2024-01-25T06:26:29;4.10;99.90
57390;DHT22;43217;52.694;6.214;2024-01-25T06:28:55;4.10;99.90
57390;DHT22;43217;52.694;6.214;2024-01-25T06:31:22;4.10;99.90
57390;DHT22;43217;52.694;6.214;2024-01-25T06:33:48;4.10;99.90
57390;DHT22;43217;52.694;6.214;2024-01-25T06:36:16;4.10;99.90
57390;DHT22;43217;52.694;6.214;2024-01-25T06:38:42;4.10;99.90
57390;DHT22;43217;52.694;6.214;2024-01-25T06:41:08;4.10;99.90
57390;DHT22;43217;52.694;6.214;2024-01-25T06:43:34;4.10;99.90
57390;DHT22;43217;52.694;6.214;2024-01-25T06:45:59;4.10;99.90
57390;DHT22;43217;52.694;6.214;2024-01-25T06:48:25;4.10;99.90
57390;DHT22;43217;52.694;6.214;2024-01-25T06:50:50;4.10;99.90
57390;DHT22;43217;52.694;6.214;2024-01-25T06:53:16;4.10;99.90
57390;DHT22;43217;52.694;6.214;2024-01-25T06:55:42;4.10;99.90
57390;DHT22;43217;52.694;6.214;2024-01-25T06:58:08;4.10;99.90
57390;DHT22;43217;52.694;6.214;2024-01-25T07:00:33;4.10;99.90
57390;DHT22;43217;52.694;6.214;2024-01-25T07:02:59;4.10;99.90
57390;DHT22;43217;52.694;6.214;2024-01-25T07:05:25;4.10;99.90
57390;DHT22;43217;52.694;6.214;2024-01-25T07:07:52;4.00;99.90
57390;DHT22;43217;52.694;6.214;2024-01-25T07:10:18;4.00;99.90
57390;DHT22;43217;52.694;6.214;2024-01-25T07:12:43;4.00;99.90
57390;DHT22;43217;52.694;6.214;2024-01-25T07:15:09;4.00;99.90
57390;DHT22;43217;52.694;6.214;2024-01-25T07:17:35;4.00;99.90
57390;DHT22;43217;52.694;6.214;2024-01-25T07:20:00;4.00;99.90
57390;DHT22;43217;52.694;6.214;2024-01-25T07:22:26;3.90;99.90
57390;DHT22;43217;52.694;6.214;2024-01-25T07:24:51;3.90;99.90
57390;DHT22;43217;52.694;6.214;2024-01-25T07:27:17;3.90;99.90
57390;DHT22;43217;52.694;6.214;2024-01-25T07:29:45;3.80;99.90
57390;DHT22;43217;52.694;6.214;2024-01-25T07:32:12;3.80;99.90
57390;DHT22;43217;52.694;6.214;2024-01-25T07:34:38;3.80;99.90
57390;DHT22;43217;52.694;6.214;2024-01-25T07:37:03;3.70;99.90
57390;DHT22;43217;52.694;6.214;2024-01-25T07:39:29;3.60;99.90
57390;DHT22;43217;52.694;6.214;2024-01-25T07:41:55;3.60;99.90
57390;DHT22;43217;52.694;6.214;2024-01-25T07:44:20;3.60;99.90
57390;DHT22;43217;52.694;6.214;2024-01-25T07:46:46;3.60;99.90
57390;DHT22;43217;52.694;6.214;2024-01-25T07:49:12;3.60;99.90
57390;DHT22;43217;52.694;6.214;2024-01-25T07:51:38;3.70;99.90
57390;DHT22;43217;52.694;6.214;2024-01-25T07:54:04;3.80;99.90
57390;DHT22;43217;52.694;6.214;2024-01-25T07:56:29;3.80;99.90
57390;DHT22;43217;52.694;6.214;2024-01-25T07:58:55;3.80;99.90
57390;DHT22;43217;52.694;6.214;2024-01-25T08:01:22;3.80;99.90
57390;DHT22;43217;52.694;6.214;2024-01-25T08:03:47;3.90;99.90
57390;DHT22;43217;52.694;6.214;2024-01-25T08:06:13;3.90;99.90
57390;DHT22;43217;52.694;6.214;2024-01-25T08:08:39;3.90;99.90
57390;DHT22;43217;52.694;6.214;2024-01-25T08:11:04;3.90;99.90
57390;DHT22;43217;52.694;6.214;2024-01-25T08:13:30;4.00;99.90
57390;DHT22;43217;52.694;6.214;2024-01-25T08:15:56;4.00;99.90
57390;DHT22;43217;52.694;6.214;2024-01-25T08:18:22;4.00;99.90
57390;DHT22;43217;52.694;6.214;2024-01-25T08:20:52;4.00;99.90
57390;DHT22;43217;52.694;6.214;2024-01-25T08:23:18;4.00;99.90
57390;DHT22;43217;52.694;6.214;2024-01-25T08:25:44;4.00;99.90
57390;DHT22;43217;52.694;6.214;2024-01-25T08:28:10;4.00;99.90
57390;DHT22;43217;52.694;6.214;2024-01-25T08:30:35;3.90;99.90
57390;DHT22;43217;52.694;6.214;2024-01-25T08:33:01;4.00;99.90
57390;DHT22;43217;52.694;6.214;2024-01-25T08:35:27;3.90;99.90
57390;DHT22;43217;52.694;6.214;2024-01-25T08:37:52;4.00;99.90
57390;DHT22;43217;52.694;6.214;2024-01-25T08:40:18;4.00;99.90
57390;DHT22;43217;52.694;6.214;2024-01-25T08:42:43;4.00;99.90
57390;DHT22;43217;52.694;6.214;2024-01-25T08:45:09;4.10;99.90
57390;DHT22;43217;52.694;6.214;2024-01-25T08:47:36;4.10;99.90
57390;DHT22;43217;52.694;6.214;2024-01-25T08:50:01;4.20;99.90
57390;DHT22;43217;52.694;6.214;2024-01-25T08:52:27;4.20;99.90
57390;DHT22;43217;52.694;6.214;2024-01-25T08:54:53;4.20;99.90
57390;DHT22;43217;52.694;6.214;2024-01-25T08:57:18;4.30;99.90
57390;DHT22;43217;52.694;6.214;2024-01-25T08:59:44;4.30;99.90
57390;DHT22;43217;52.694;6.214;2024-01-25T09:02:09;4.30;99.90
57390;DHT22;43217;52.694;6.214;2024-01-25T09:04:35;4.30;99.90
57390;DHT22;43217;52.694;6.214;2024-01-25T09:07:02;4.30;99.90
57390;DHT22;43217;52.694;6.214;2024-01-25T09:09:27;4.40;99.90
57390;DHT22;43217;52.694;6.214;2024-01-25T09:11:53;4.40;99.90
57390;DHT22;43217;52.694;6.214;2024-01-25T09:14:19;4.50;99.90
57390;DHT22;43217;52.694;6.214;2024-01-25T09:16:45;4.60;99.90
57390;DHT22;43217;52.694;6.214;2024-01-25T09:19:10;4.60;99.90
57390;DHT22;43217;52.694;6.214;2024-01-25T09:21:38;4.70;99.90
57390;DHT22;43217;52.694;6.214;2024-01-25T09:24:05;4.70;99.90
57390;DHT22;43217;52.694;6.214;2024-01-25T09:26:31;4.80;99.90
57390;DHT22;43217;52.694;6.214;2024-01-25T09:28:57;4.80;99.90
57390;DHT22;43217;52.694;6.214;2024-01-25T09:31:23;4.90;99.90
57390;DHT22;43217;52.694;6.214;2024-01-25T09:33:48;4.90;99.90
57390;DHT22;43217;52.694;6.214;2024-01-25T09:36:15;5.00;99.90
57390;DHT22;43217;52.694;6.214;2024-01-25T09:38:41;5.10;99.90
57390;DHT22;43217;52.694;6.214;2024-01-25T09:41:07;5.10;99.90
57390;DHT22;43217;52.694;6.214;2024-01-25T09:43:33;5.20;99.90
57390;DHT22;43217;52.694;6.214;2024-01-25T09:46:00;5.20;99.90
57390;DHT22;43217;52.694;6.214;2024-01-25T09:48:26;5.30;99.90
57390;DHT22;43217;52.694;6.214;2024-01-25T09:50:55;5.30;99.90
57390;DHT22;43217;52.694;6.214;2024-01-25T09:53:24;5.30;99.90
57390;DHT22;43217;52.694;6.214;2024-01-25T09:56:17;5.30;99.90
57390;DHT22;43217;52.694;6.214;2024-01-25T09:58:44;5.40;99.90
57390;DHT22;43217;52.694;6.214;2024-01-25T10:01:15;5.40;99.90
57390;DHT22;43217;52.694;6.214;2024-01-25T10:03:45;5.40;99.90
57390;DHT22;43217;52.694;6.214;2024-01-25T10:06:12;5.40;99.90
57390;DHT22;43217;52.694;6.214;2024-01-25T10:08:38;5.50;99.90
57390;DHT22;43217;52.694;6.214;2024-01-25T10:11:04;5.50;99.90
57390;DHT22;43217;52.694;6.214;2024-01-25T10:13:31;5.50;99.90
57390;DHT22;43217;52.694;6.214;2024-01-25T10:15:57;5.60;99.90
57390;DHT22;43217;52.694;6.214;2024-01-25T10:18:24;5.70;99.90
57390;DHT22;43217;52.694;6.214;2024-01-25T10:20:52;5.70;99.90
57390;DHT22;43217;52.694;6.214;2024-01-25T10:23:18;5.80;99.90
57390;DHT22;43217;52.694;6.214;2024-01-25T10:25:43;5.80;99.90
57390;DHT22;43217;52.694;6.214;2024-01-25T10:28:09;5.90;99.90
57390;DHT22;43217;52.694;6.214;2024-01-25T10:30:36;6.00;99.90
57390;DHT22;43217;52.694;6.214;2024-01-25T10:33:02;6.00;99.90
57390;DHT22;43217;52.694;6.214;2024-01-25T10:35:31;6.10;99.90
57390;DHT22;43217;52.694;6.214;2024-01-25T10:37:57;6.10;99.90
57390;DHT22;43217;52.694;6.214;2024-01-25T10:40:23;6.20;99.90
57390;DHT22;43217;52.694;6.214;2024-01-25T10:42:50;6.20;99.90
57390;DHT22;43217;52.694;6.214;2024-01-25T10:45:15;6.20;99.90
57390;DHT22;43217;52.694;6.214;2024-01-25T10:47:41;6.30;99.90
57390;DHT22;43217;52.694;6.214;2024-01-25T10:50:07;6.30;99.90
57390;DHT22;43217;52.694;6.214;2024-01-25T10:52:35;6.40;99.90
57390;DHT22;43217;52.694;6.214;2024-01-25T10:55:02;6.40;99.90
57390;DHT22;43217;52.694;6.214;2024-01-25T10:57:43;6.40;99.90
57390;DHT22;43217;52.694;6.214;2024-01-25T11:00:11;6.40;99.90
57390;DHT22;43217;52.694;6.214;2024-01-25T11:02:38;6.40;99.90
57390;DHT22;43217;52.694;6.214;2024-01-25T11:05:11;6.50;99.90
57390;DHT22;43217;52.694;6.214;2024-01-25T11:07:44;6.50;99.90
57390;DHT22;43217;52.694;6.214;2024-01-25T11:10:16;6.50;99.90
57390;DHT22;43217;52.694;6.214;2024-01-25T11:12:59;6.60;99.90
57390;DHT22;43217;52.694;6.214;2024-01-25T11:15:35;6.60;99.90
57390;DHT22;43217;52.694;6.214;2024-01-25T11:18:07;6.70;99.90
57390;DHT22;43217;52.694;6.214;2024-01-25T11:20:34;6.80;99.90
57390;DHT22;43217;52.694;6.214;2024-01-25T11:23:05;6.80;99.90
57390;DHT22;43217;52.694;6.214;2024-01-25T11:25:32;6.90;99.90
57390;DHT22;43217;52.694;6.214;2024-01-25T11:27:59;6.90;99.90
57390;DHT22;43217;52.694;6.214;2024-01-25T11:30:29;7.00;99.90
57390;DHT22;43217;52.694;6.214;2024-01-25T11:32:55;7.00;99.90
57390;DHT22;43217;52.694;6.214;2024-01-25T11:35:21;7.00;99.90
57390;DHT22;43217;52.694;6.214;2024-01-25T11:37:49;7.10;99.90
57390;DHT22;43217;52.694;6.214;2024-01-25T11:40:15;7.10;99.90
57390;DHT22;43217;52.694;6.214;2024-01-25T11:42:42;7.10;99.90
57390;DHT22;43217;52.694;6.214;2024-01-25T11:45:11;7.20;99.90
57390;DHT22;43217;52.694;6.214;2024-01-25T11:47:38;7.20;99.90
57390;DHT22;43217;52.694;6.214;2024-01-25T11:50:05;7.30;99.90
57390;DHT22;43217;52.694;6.214;2024-01-25T11:52:31;7.30;99.90
57390;DHT22;43217;52.694;6.214;2024-01-25T11:55:04;7.40;99.90
57390;DHT22;43217;52.694;6.214;2024-01-25T11:57:32;7.40;99.90
57390;DHT22;43217;52.694;6.214;2024-01-25T11:59:59;7.50;99.90
57390;DHT22;43217;52.694;6.214;2024-01-25T12:02:25;7.50;99.90
57390;DHT22;43217;52.694;6.214;2024-01-25T12:04:52;7.60;99.90
57390;DHT22;43217;52.694;6.214;2024-01-25T12:07:20;7.60;99.90
57390;DHT22;43217;52.694;6.214;2024-01-25T12:10:01;7.70;99.90
57390;DHT22;43217;52.694;6.214;2024-01-25T12:12:27;7.70;99.90
57390;DHT22;43217;52.694;6.214;2024-01-25T12:14:58;7.60;99.90
57390;DHT22;43217;52.694;6.214;2024-01-25T12:17:23;7.60;99.90
57390;DHT22;43217;52.694;6.214;2024-01-25T12:19:49;7.60;99.90
57390;DHT22;43217;52.694;6.214;2024-01-25T12:22:20;7.60;99.90
57390;DHT22;43217;52.694;6.214;2024-01-25T12:24:46;7.70;99.90
57390;DHT22;43217;52.694;6.214;2024-01-25T12:27:15;7.80;99.90
57390;DHT22;43217;52.694;6.214;2024-01-25T12:29:41;7.80;99.90
57390;DHT22;43217;52.694;6.214;2024-01-25T12:32:07;7.80;99.90
57390;DHT22;43217;52.694;6.214;2024-01-25T12:34:32;7.80;99.90
57390;DHT22;43217;52.694;6.214;2024-01-25T12:36:58;7.90;99.90
57390;DHT22;43217;52.694;6.214;2024-01-25T12:39:24;7.90;99.90
57390;DHT22;43217;52.694;6.214;2024-01-25T12:41:50;7.90;99.90
57390;DHT22;43217;52.694;6.214;2024-01-25T12:44:16;8.00;99.90
57390;DHT22;43217;52.694;6.214;2024-01-25T12:46:42;8.10;99.90
57390;DHT22;43217;52.694;6.214;2024-01-25T12:49:07;8.20;99.90
57390;DHT22;43217;52.694;6.214;2024-01-25T12:51:33;8.30;99.90
57390;DHT22;43217;52.694;6.214;2024-01-25T12:53:59;8.30;99.90
57390;DHT22;43217;52.694;6.214;2024-01-25T12:56:24;8.40;99.90
57390;DHT22;43217;52.694;6.214;2024-01-25T12:58:50;8.50;99.90
57390;DHT22;43217;52.694;6.214;2024-01-25T13:01:16;8.50;99.90
57390;DHT22;43217;52.694;6.214;2024-01-25T13:03:41;8.60;99.90
57390;DHT22;43217;52.694;6.214;2024-01-25T13:06:07;8.60;99.90
57390;DHT22;43217;52.694;6.214;2024-01-25T13:08:32;8.60;99.90
57390;DHT22;43217;52.694;6.214;2024-01-25T13:10:58;8.50;99.90
57390;DHT22;43217;52.694;6.214;2024-01-25T13:13:24;8.50;99.90
57390;DHT22;43217;52.694;6.214;2024-01-25T13:15:51;8.50;99.90
57390;DHT22;43217;52.694;6.214;2024-01-25T13:18:16;8.40;99.90
57390;DHT22;43217;52.694;6.214;2024-01-25T13:20:42;8.40;99.90
57390;DHT22;43217;52.694;6.214;2024-01-25T13:23:07;8.40;99.90
57390;DHT22;43217;52.694;6.214;2024-01-25T13:25:33;8.40;99.90
57390;DHT22;43217;52.694;6.214;2024-01-25T13:27:59;8.40;99.90
57390;DHT22;43217;52.694;6.214;2024-01-25T13:30:25;8.40;99.90
57390;DHT22;43217;52.694;6.214;2024-01-25T13:32:51;8.40;99.90
57390;DHT22;43217;52.694;6.214;2024-01-25T13:35:16;8.40;99.90
57390;DHT22;43217;52.694;6.214;2024-01-25T13:37:42;8.40;99.90
57390;DHT22;43217;52.694;6.214;2024-01-25T13:40:08;8.40;99.90
57390;DHT22;43217;52.694;6.214;2024-01-25T13:42:33;8.40;99.90
57390;DHT22;43217;52.694;6.214;2024-01-25T13:44:59;8.40;99.90
57390;DHT22;43217;52.694;6.214;2024-01-25T13:47:25;8.40;99.90
57390;DHT22;43217;52.694;6.214;2024-01-25T13:49:50;8.40;99.90
57390;DHT22;43217;52.694;6.214;2024-01-25T13:52:19;8.30;99.90
57390;DHT22;43217;52.694;6.214;2024-01-25T13:54:46;8.40;99.90
57390;DHT22;43217;52.694;6.214;2024-01-25T13:57:14;8.30;99.90
57390;DHT22;43217;52.694;6.214;2024-01-25T13:59:40;8.40;99.90
57390;DHT22;43217;52.694;6.214;2024-01-25T14:02:06;8.40;99.90
57390;DHT22;43217;52.694;6.214;2024-01-25T14:04:31;8.30;99.90
57390;DHT22;43217;52.694;6.214;2024-01-25T14:06:57;8.30;99.90
57390;DHT22;43217;52.694;6.214;2024-01-25T14:09:22;8.30;99.90
57390;DHT22;43217;52.694;6.214;2024-01-25T14:11:48;8.30;99.90
57390;DHT22;43217;52.694;6.214;2024-01-25T14:14:13;8.30;99.90
57390;DHT22;43217;52.694;6.214;2024-01-25T14:16:39;8.30;99.90
57390;DHT22;43217;52.694;6.214;2024-01-25T14:19:04;8.30;99.90
57390;DHT22;43217;52.694;6.214;2024-01-25T14:21:31;8.30;99.90
57390;DHT22;43217;52.694;6.214;2024-01-25T14:23:57;8.30;99.90
57390;DHT22;43217;52.694;6.214;2024-01-25T14:26:22;8.30;99.90
57390;DHT22;43217;52.694;6.214;2024-01-25T14:28:48;8.30;99.90
57390;DHT22;43217;52.694;6.214;2024-01-25T14:31:14;8.30;99.90
57390;DHT22;43217;52.694;6.214;2024-01-25T14:33:40;8.20;99.90
57390;DHT22;43217;52.694;6.214;2024-01-25T14:36:06;8.20;99.90
57390;DHT22;43217;52.694;6.214;2024-01-25T14:38:31;8.20;99.90
57390;DHT22;43217;52.694;6.214;2024-01-25T14:40:59;8.20;99.90
57390;DHT22;43217;52.694;6.214;2024-01-25T14:43:25;8.10;99.90
57390;DHT22;43217;52.694;6.214;2024-01-25T14:45:51;8.20;99.90
57390;DHT22;43217;52.694;6.214;2024-01-25T14:48:17;8.10;99.90
57390;DHT22;43217;52.694;6.214;2024-01-25T14:50:42;8.10;99.90
57390;DHT22;43217;52.694;6.214;2024-01-25T14:53:08;8.10;99.90
57390;DHT22;43217;52.694;6.214;2024-01-25T14:55:34;8.10;99.90
57390;DHT22;43217;52.694;6.214;2024-01-25T14:58:00;8.10;99.90
57390;DHT22;43217;52.694;6.214;2024-01-25T15:00:25;8.10;99.90
57390;DHT22;43217;52.694;6.214;2024-01-25T15:02:51;8.10;99.90
57390;DHT22;43217;52.694;6.214;2024-01-25T15:05:17;8.10;99.90
57390;DHT22;43217;52.694;6.214;2024-01-25T15:07:42;8.00;99.90
57390;DHT22;43217;52.694;6.214;2024-01-25T15:10:08;8.00;99.90
57390;DHT22;43217;52.694;6.214;2024-01-25T15:12:34;8.10;99.90
57390;DHT22;43217;52.694;6.214;2024-01-25T15:15:00;8.00;99.90
57390;DHT22;43217;52.694;6.214;2024-01-25T15:17:25;8.00;99.90
57390;DHT22;43217;52.694;6.214;2024-01-25T15:19:51;8.00;99.90
57390;DHT22;43217;52.694;6.214;2024-01-25T15:22:17;8.00;99.90
57390;DHT22;43217;52.694;6.214;2024-01-25T15:24:42;8.00;99.90
57390;DHT22;43217;52.694;6.214;2024-01-25T15:27:08;8.00;99.90
57390;DHT22;43217;52.694;6.214;2024-01-25T15:29:39;8.00;99.90
57390;DHT22;43217;52.694;6.214;2024-01-25T15:32:05;8.00;99.90
57390;DHT22;43217;52.694;6.214;2024-01-25T15:34:31;8.00;99.90
57390;DHT22;43217;52.694;6.214;2024-01-25T15:36:56;7.90;99.90
57390;DHT22;43217;52.694;6.214;2024-01-25T15:39:22;7.90;99.90